Time;durP1;ratioP1;P1;durP2;ratioP2;P2;SDS_P1;SDS_P2;PMS_P1;PMS_P2;Temp;Humidity;BMP_temperature;BMP_pressure;BME280_temperature;BME280_humidity;BME280_pressure;Samples;Min_cycle;Max_cycle;Signal;HPM_P1;HPM_P2
2022/02/09 00:02:40;;;;;;;5.10;3.65;;;12.80;77.50;;;;;;5022300;28;21433;-84
2022/02/09 00:10:41;;;;;;;4.40;3.30;;;12.70;77.50;;;;;;4959335;28;20101;-83
2022/02/09 00:13:33;;;;;;;5.10;3.42;;;12.80;77.50;;;;;;5018281;28;20036;-85
2022/02/09 00:24:50;;;;;;;5.10;3.38;;;12.70;77.60;;;;;;4999367;28;20054;-85
2022/02/09 00:27:11;;;;;;;4.28;3.30;;;12.80;77.60;;;;;;5013985;28;20075;-85
2022/02/09 00:32:27;;;;;;;4.93;3.20;;;12.70;77.60;;;;;;5031413;28;20037;-84
2022/02/09 00:35:11;;;;;;;4.00;3.00;;;12.70;77.60;;;;;;5022384;28;20037;-84
2022/02/09 01:38:33;;;;;;;3.17;2.70;;;12.60;77.80;;;;;;5026629;28;20037;-84
2022/02/09 01:57:08;;;;;;;3.40;2.85;;;12.60;77.80;;;;;;5029825;28;20514;-84
2022/02/09 01:59:36;;;;;;;3.92;2.65;;;12.60;77.80;;;;;;5016007;28;20081;-84
2022/02/09 02:02:02;;;;;;;3.90;2.58;;;12.60;77.80;;;;;;5017709;28;20033;-84
2022/02/09 02:04:28;;;;;;;3.85;2.63;;;12.60;77.90;;;;;;5020253;28;20040;-85
2022/02/09 02:06:55;;;;;;;4.00;2.90;;;12.60;77.90;;;;;;5023140;28;20026;-84
2022/02/09 02:09:23;;;;;;;3.90;2.88;;;12.60;77.80;;;;;;5015883;28;20082;-84
2022/02/09 02:11:56;;;;;;;3.90;2.70;;;12.60;77.80;;;;;;5010644;28;20084;-83
2022/02/09 02:17:10;;;;;;;4.00;2.88;;;12.60;77.80;;;;;;5014844;28;20124;-84
2022/02/09 02:19:45;;;;;;;4.07;2.78;;;12.60;77.80;;;;;;4998778;28;20034;-84
2022/02/09 02:38:11;;;;;;;5.45;3.20;;;12.60;77.80;;;;;;5036099;28;20029;-84
2022/02/09 02:57:52;;;;;;;3.92;3.13;;;12.50;77.90;;;;;;5040512;28;20073;-84
2022/02/09 03:13:29;;;;;;;4.65;3.50;;;12.50;77.90;;;;;;5015991;28;20429;-84
2022/02/09 03:16:03;;;;;;;3.72;3.25;;;12.50;77.90;;;;;;5020058;28;20464;-85
2022/02/09 03:18:58;;;;;;;4.55;3.35;;;12.50;77.90;;;;;;5033087;28;20041;-84
2022/02/09 03:22:11;;;;;;;4.43;3.63;;;12.50;77.90;;;;;;5025239;28;20386;-83
2022/02/09 03:24:15;;;;;;;4.13;3.20;;;12.50;77.90;;;;;;5016930;28;20654;-84
2022/02/09 03:43:01;;;;;;;4.50;3.20;;;12.50;77.90;;;;;;4991253;28;20474;-84
2022/02/09 03:48:50;;;;;;;4.05;3.45;;;12.50;78.00;;;;;;4948048;28;20061;-83
2022/02/09 03:56:27;;;;;;;4.00;3.22;;;12.50;78.00;;;;;;4985684;28;20034;-84
2022/02/09 03:58:53;;;;;;;4.28;3.28;;;12.50;78.00;;;;;;4988058;28;20037;-87
2022/02/09 04:01:21;;;;;;;3.50;3.05;;;12.50;78.60;;;;;;4984214;28;20018;-84
2022/02/09 04:03:47;;;;;;;4.10;3.25;;;12.50;78.00;;;;;;4983992;28;20030;-84
2022/02/09 04:06:14;;;;;;;5.00;4.10;;;12.50;78.00;;;;;;4963504;28;20030;-84
2022/02/09 04:08:55;;;;;;;4.35;3.45;;;12.50;78.00;;;;;;4981842;28;20038;-85
2022/02/09 04:11:38;;;;;;;4.40;3.67;;;12.50;78.00;;;;;;4987791;28;20037;-86
2022/02/09 04:14:17;;;;;;;4.05;3.22;;;12.50;77.90;;;;;;4975884;28;20507;-85
2022/02/09 04:17:02;;;;;;;4.50;3.20;;;12.50;77.90;;;;;;4979342;28;20464;-83
2022/02/09 04:38:51;;;;;;;4.70;3.55;;;12.40;78.00;;;;;;4997547;28;20038;-83
2022/02/09 04:51:36;;;;;;;4.50;3.53;;;12.40;78.10;;;;;;5009638;28;20109;-85
2022/02/09 05:28:17;;;;;;;5.65;4.65;;;12.30;78.10;;;;;;5022803;28;20056;-84
2022/02/09 05:30:46;;;;;;;5.72;4.40;;;12.40;78.10;;;;;;5003241;28;20371;-84
2022/02/09 05:33:12;;;;;;;4.90;4.03;;;12.40;78.10;;;;;;4994366;28;20036;-84
2022/02/09 05:35:38;;;;;;;5.55;4.60;;;12.40;78.10;;;;;;4996535;28;20092;-83
2022/02/09 05:38:04;;;;;;;5.22;4.50;;;12.40;78.10;;;;;;5003453;28;20074;-83
2022/02/09 05:40:30;;;;;;;6.53;4.90;;;12.40;78.10;;;;;;4987619;28;20030;-84
2022/02/09 05:42:57;;;;;;;5.60;4.70;;;12.40;78.10;;;;;;4989553;28;20026;-88
2022/02/09 05:45:26;;;;;;;5.97;4.90;;;12.40;78.10;;;;;;4974995;28;20029;-83
2022/02/09 05:48:56;;;;;;;5.18;4.25;;;12.30;78.10;;;;;;5005025;28;20030;-83
2022/02/09 05:53:16;;;;;;;5.97;5.00;;;12.30;78.00;;;;;;5004282;28;20044;-82
2022/02/09 06:00:54;;;;;;;6.65;5.20;;;12.30;78.00;;;;;;4997151;28;20021;-84
2022/02/09 06:03:20;;;;;;;6.85;5.10;;;12.30;78.10;;;;;;4992415;28;20095;-83
2022/02/09 06:05:47;;;;;;;6.47;4.85;;;12.30;78.10;;;;;;5006028;28;20042;-82
2022/02/09 06:08:13;;;;;;;5.63;4.80;;;12.30;78.10;;;;;;4994482;28;20040;-82
2022/02/09 06:10:41;;;;;;;6.68;5.75;;;12.30;78.10;;;;;;4993862;28;20113;-84
2022/02/09 06:16:13;;;;;;;5.75;4.97;;;12.30;78.20;;;;;;5011763;28;20037;-84
2022/02/09 06:21:23;;;;;;;6.22;5.13;;;12.30;78.20;;;;;;4977019;28;20034;-82
2022/02/09 06:23:49;;;;;;;6.00;5.10;;;12.20;78.10;;;;;;4977184;28;20037;-82
2022/02/09 06:26:15;;;;;;;5.80;5.05;;;12.30;78.20;;;;;;4996500;28;20022;-80
2022/02/09 06:28:41;;;;;;;6.60;5.47;;;12.30;78.20;;;;;;4983340;28;20030;-83
2022/02/09 06:31:07;;;;;;;6.18;5.40;;;12.30;78.30;;;;;;4979902;28;20038;-85
2022/02/09 06:33:33;;;;;;;6.25;5.07;;;12.30;78.20;;;;;;5002413;28;20433;-81
2022/02/09 06:36:02;;;;;;;6.07;5.40;;;12.20;78.20;;;;;;5001521;28;20041;-80
2022/02/09 06:38:28;;;;;;;6.30;5.50;;;12.20;78.20;;;;;;5005890;28;20117;-81
2022/02/09 06:40:56;;;;;;;5.68;4.65;;;12.20;78.20;;;;;;5003974;28;20437;-82
2022/02/09 06:43:22;;;;;;;5.75;5.15;;;12.20;78.20;;;;;;5022279;28;20025;-80
2022/02/09 06:45:48;;;;;;;6.03;5.25;;;12.30;78.20;;;;;;4999239;28;20029;-81
2022/02/09 06:48:17;;;;;;;6.18;5.18;;;12.30;78.30;;;;;;5005398;28;20320;-81
2022/02/09 06:50:52;;;;;;;5.93;5.10;;;12.30;78.30;;;;;;5005930;28;20116;-81
2022/02/09 06:55:56;;;;;;;5.78;4.88;;;12.30;78.30;;;;;;5009149;28;20475;-81
2022/02/09 07:01:06;;;;;;;5.57;4.65;;;12.20;78.20;;;;;;5006742;28;20375;-81
2022/02/09 07:03:32;;;;;;;5.82;4.78;;;12.20;78.30;;;;;;5003130;28;20040;-81
2022/02/09 07:05:58;;;;;;;5.78;4.78;;;12.20;78.30;;;;;;4988903;28;20076;-82
2022/02/09 07:08:24;;;;;;;5.45;4.65;;;12.20;78.30;;;;;;5004728;28;20050;-82
2022/02/09 07:10:49;;;;;;;5.32;4.47;;;12.20;78.30;;;;;;4975540;28;20493;-82
2022/02/09 07:13:16;;;;;;;5.78;4.78;;;12.20;78.30;;;;;;5023830;28;20030;-83
2022/02/09 07:15:49;;;;;;;5.82;5.00;;;12.20;78.30;;;;;;4996065;28;20056;-82
2022/02/09 07:18:15;;;;;;;6.05;5.03;;;12.20;78.40;;;;;;4994846;28;20034;-82
2022/02/09 07:20:53;;;;;;;5.68;4.82;;;12.10;78.30;;;;;;5005001;28;20041;-82
2022/02/09 07:23:28;;;;;;;5.40;4.57;;;12.20;78.40;;;;;;4997291;28;20037;-82
2022/02/09 07:26:07;;;;;;;5.88;4.78;;;12.20;78.30;;;;;;5040817;28;20049;-84
2022/02/09 07:28:34;;;;;;;5.70;4.68;;;12.20;78.30;;;;;;4991024;28;20049;-86
2022/02/09 07:31:01;;;;;;;5.20;4.57;;;12.20;78.40;;;;;;4993505;28;20053;-83
2022/02/09 07:33:27;;;;;;;5.72;4.82;;;12.10;78.40;;;;;;4979086;28;20038;-84
2022/02/09 07:35:53;;;;;;;5.60;4.60;;;12.10;78.40;;;;;;4981851;28;20091;-83
2022/02/09 07:38:19;;;;;;;5.80;4.80;;;12.10;78.30;;;;;;4988213;28;20112;-82
2022/02/09 07:40:45;;;;;;;5.28;4.45;;;12.10;78.40;;;;;;4997139;28;20022;-83
2022/02/09 07:43:19;;;;;;;5.85;4.78;;;12.10;78.40;;;;;;5011295;28;20036;-83
2022/02/09 07:48:54;;;;;;;5.10;4.28;;;12.10;78.40;;;;;;4993459;28;20559;-82
2022/02/09 07:56:15;;;;;;;5.00;4.18;;;12.10;78.40;;;;;;4972477;28;20065;-84
2022/02/09 07:58:41;;;;;;;5.10;4.30;;;12.10;78.40;;;;;;5004061;28;20045;-83
2022/02/09 08:01:06;;;;;;;5.30;4.30;;;12.10;78.40;;;;;;4992320;28;20034;-83
2022/02/09 08:03:32;;;;;;;5.55;4.43;;;12.10;78.40;;;;;;4957371;28;20030;-81
2022/02/09 08:05:58;;;;;;;4.55;4.03;;;12.10;78.40;;;;;;4995836;28;20096;-82
2022/02/09 08:08:29;;;;;;;5.18;4.35;;;12.10;78.40;;;;;;4988428;28;20025;-83
2022/02/09 08:10:58;;;;;;;5.90;4.93;;;12.10;78.40;;;;;;4984534;28;20038;-83
2022/02/09 08:27:18;;;;;;;5.25;4.43;;;12.00;78.40;;;;;;5032772;28;20061;-85
2022/02/09 08:30:18;;;;;;;4.72;4.05;;;12.00;78.40;;;;;;5049769;28;20052;-86
2022/02/09 08:34:56;;;;;;;5.75;4.35;;;12.00;78.40;;;;;;5022409;28;20034;-85
2022/02/09 08:37:22;;;;;;;5.63;4.30;;;12.00;78.50;;;;;;4987506;28;20080;-85
2022/02/09 08:39:49;;;;;;;5.47;4.47;;;12.00;79.10;;;;;;5012617;28;20036;-87
2022/02/09 08:42:16;;;;;;;5.63;4.88;;;12.00;78.50;;;;;;4999110;28;20056;-86
2022/02/09 08:44:44;;;;;;;5.18;4.65;;;12.00;78.50;;;;;;5001313;28;20553;-85
2022/02/09 08:47:10;;;;;;;5.78;5.05;;;12.00;78.50;;;;;;5002056;28;20029;-85
2022/02/09 08:49:36;;;;;;;5.40;4.30;;;12.00;78.40;;;;;;4987500;28;20034;-86
2022/02/09 08:52:03;;;;;;;5.25;4.70;;;12.00;78.40;;;;;;4996031;28;20029;-86
2022/02/09 08:54:29;;;;;;;5.90;5.10;;;12.00;78.40;;;;;;5005022;28;20478;-86
2022/02/09 08:56:56;;;;;;;6.32;5.25;;;12.00;78.40;;;;;;4981479;28;20037;-86
2022/02/09 08:59:27;;;;;;;5.88;4.65;;;12.10;78.50;;;;;;4988273;28;20025;-86
2022/02/09 09:02:03;;;;;;;6.68;4.90;;;12.00;78.40;;;;;;4996294;28;20096;-86
2022/02/09 09:04:34;;;;;;;6.00;5.00;;;12.00;78.40;;;;;;5005912;28;20040;-85
2022/02/09 09:07:11;;;;;;;5.43;4.70;;;12.00;78.40;;;;;;4997294;28;20029;-86
2022/02/09 09:15:19;;;;;;;5.28;4.72;;;12.00;78.40;;;;;;4993917;28;20437;-82
2022/02/09 10:34:01;;;;;;;5.68;4.80;;;12.10;78.90;;;;;;4998784;28;20045;-84
2022/02/09 10:36:27;;;;;;;6.10;5.25;;;12.10;79.00;;;;;;5008783;28;20037;-88
2022/02/09 10:39:12;;;;;;;6.50;5.32;;;12.10;78.90;;;;;;5023016;28;20055;-82
2022/02/09 10:41:55;;;;;;;5.72;4.82;;;12.10;79.00;;;;;;5014053;28;20113;-83
2022/02/09 10:44:24;;;;;;;7.10;5.40;;;12.10;79.00;;;;;;5000289;28;20065;-83
2022/02/09 10:46:57;;;;;;;6.32;5.13;;;12.10;78.80;;;;;;5017125;28;20230;-81
2022/02/09 10:49:28;;;;;;;5.40;4.60;;;12.10;78.90;;;;;;5000619;28;20367;-82
2022/02/09 10:54:27;;;;;;;5.90;4.90;;;12.10;78.90;;;;;;5009464;28;20087;-83
2022/02/09 10:56:57;;;;;;;6.65;4.93;;;12.10;78.90;;;;;;5008363;28;20505;-82
2022/02/09 10:59:25;;;;;;;7.53;5.32;;;12.10;78.90;;;;;;5005256;28;20030;-83
2022/02/09 11:01:53;;;;;;;6.30;5.18;;;12.10;78.80;;;;;;4972319;28;20378;-82
2022/02/09 11:04:19;;;;;;;6.28;5.05;;;12.20;78.90;;;;;;4997618;28;20030;-83
2022/02/09 11:06:46;;;;;;;6.00;4.60;;;12.20;78.90;;;;;;5010616;28;20022;-83
2022/02/09 11:09:20;;;;;;;6.25;4.95;;;12.20;78.90;;;;;;4996375;28;20121;-83
2022/02/09 11:11:47;;;;;;;6.00;4.80;;;12.20;78.90;;;;;;5010727;28;20113;-82
2022/02/09 11:14:21;;;;;;;6.20;5.03;;;12.20;78.80;;;;;;4997778;28;20033;-83
2022/02/09 11:16:52;;;;;;;6.60;5.50;;;12.20;78.90;;;;;;4985837;28;20495;-82
2022/02/09 11:19:19;;;;;;;6.30;5.10;;;12.20;78.80;;;;;;5004230;28;20113;-82
2022/02/09 11:21:50;;;;;;;6.40;5.10;;;12.20;78.80;;;;;;4999714;28;20490;-85
2022/02/09 11:24:25;;;;;;;5.72;4.80;;;12.20;78.80;;;;;;5007004;28;20124;-78
2022/02/09 11:27:28;;;;;;;6.95;5.45;;;12.20;78.90;;;;;;4982915;28;20037;-83
2022/02/09 11:30:25;;;;;;;6.32;5.07;;;12.20;78.80;;;;;;4986972;28;20026;-85
2022/02/09 11:33:02;;;;;;;6.43;5.18;;;12.20;78.90;;;;;;4988168;28;20029;-84
2022/02/09 11:35:40;;;;;;;6.40;4.95;;;12.30;78.90;;;;;;4995919;28;20068;-84
2022/02/09 11:38:15;;;;;;;6.22;5.35;;;12.20;78.80;;;;;;4976764;28;20053;-81
2022/02/09 11:43:22;;;;;;;5.95;5.15;;;12.30;78.90;;;;;;5015816;28;19955;-84
2022/02/09 12:10:52;;;;;;;5.80;4.85;;;12.30;79.00;;;;;;5007366;28;20045;-83
2022/02/09 12:13:44;;;;;;;6.72;4.85;;;12.40;78.90;;;;;;5005551;28;20026;-84
2022/02/09 12:19:13;;;;;;;6.55;5.32;;;12.40;79.10;;;;;;5002895;28;20077;-84
2022/02/09 12:21:52;;;;;;;5.75;4.75;;;12.40;78.90;;;;;;4995553;28;20022;-83
2022/02/09 12:24:34;;;;;;;6.32;5.13;;;12.40;79.00;;;;;;4992926;28;20046;-83
2022/02/09 12:27:03;;;;;;;6.10;4.95;;;12.40;79.00;;;;;;4988881;28;20046;-83
2022/02/09 12:29:41;;;;;;;6.05;4.80;;;12.50;79.00;;;;;;4998725;28;20414;-83
2022/02/09 12:32:16;;;;;;;6.50;4.95;;;12.50;78.90;;;;;;4997850;28;20033;-83
2022/02/09 12:34:44;;;;;;;;;;;12.50;79.00;;;;;;5004893;28;20034;-82
2022/02/09 12:37:15;;;;;;;6.18;4.70;;;12.50;78.90;;;;;;4993170;28;20009;-83
2022/02/09 12:39:53;;;;;;;5.88;4.70;;;12.50;78.80;;;;;;5004101;28;20033;-83
2022/02/09 12:42:19;;;;;;;5.43;4.20;;;12.50;78.90;;;;;;5003505;28;20044;-85
2022/02/09 12:45:14;;;;;;;6.68;5.07;;;12.50;79.50;;;;;;4986486;28;20030;-82
2022/02/09 12:47:44;;;;;;;6.47;5.03;;;12.50;79.00;;;;;;4993371;28;20026;-83
2022/02/09 12:50:25;;;;;;;6.20;5.05;;;12.60;78.90;;;;;;5006917;28;20272;-84
2022/02/09 12:52:52;;;;;;;6.13;5.10;;;12.50;78.90;;;;;;5005070;28;20033;-84
2022/02/09 12:55:21;;;;;;;5.75;4.35;;;12.60;78.90;;;;;;4991304;28;20064;-84
2022/02/09 12:58:12;;;;;;;6.18;5.03;;;12.60;78.90;;;;;;5005124;28;20109;-83
2022/02/09 13:00:42;;;;;;;5.97;5.03;;;12.60;78.90;;;;;;4993068;28;20125;-83
2022/02/09 13:03:13;;;;;;;5.68;4.75;;;12.60;78.80;;;;;;4988938;28;20080;-83
2022/02/09 13:05:43;;;;;;;5.80;4.72;;;12.60;78.80;;;;;;4984728;28;20072;-84
2022/02/09 13:08:10;;;;;;;6.28;5.03;;;12.70;78.90;;;;;;4985948;28;20379;-83
2022/02/09 13:10:38;;;;;;;6.10;4.88;;;12.70;78.80;;;;;;4999138;28;20041;-83
2022/02/09 13:13:11;;;;;;;6.00;4.68;;;12.70;78.80;;;;;;5004293;28;20131;-83
2022/02/09 13:15:53;;;;;;;6.60;5.22;;;12.70;78.80;;;;;;5000909;28;20037;-83
2022/02/09 14:19:22;;;;;;;6.55;5.40;;;12.90;78.50;;;;;;5020598;28;20063;-85
2022/02/09 14:50:49;;;;;;;6.15;5.28;;;13.00;78.50;;;;;;5022982;28;20489;-82
2022/02/09 14:57:34;;;;;;;6.78;5.40;;;13.00;78.50;;;;;;5025221;28;20064;-84
2022/02/09 15:07:48;;;;;;;6.07;5.10;;;13.00;78.40;;;;;;4997833;28;20034;-83
2022/02/09 15:10:25;;;;;;;6.57;5.40;;;13.00;78.40;;;;;;4994705;28;20084;-83
2022/02/09 15:13:05;;;;;;;6.45;5.25;;;13.00;78.40;;;;;;4994888;28;20030;-80
2022/02/09 15:15:59;;;;;;;6.00;5.15;;;13.00;78.40;;;;;;5004568;28;20096;-84
2022/02/09 15:21:17;;;;;;;6.68;5.85;;;13.00;78.90;;;;;;5025864;28;20372;-85
2022/02/09 15:23:42;;;;;;;6.50;5.15;;;13.00;78.30;;;;;;5022430;28;20034;-84
2022/02/09 15:26:08;;;;;;;5.93;4.88;;;13.00;78.30;;;;;;4988261;28;20100;-84
2022/02/09 15:28:36;;;;;;;6.78;5.10;;;13.00;78.30;;;;;;5011396;28;20038;-84
2022/02/09 15:33:46;;;;;;;6.47;5.70;;;13.00;78.30;;;;;;5004897;28;20439;-84
2022/02/09 15:36:15;;;;;;;7.10;5.78;;;13.00;78.30;;;;;;4991941;28;20473;-83
2022/02/09 15:38:46;;;;;;;6.43;5.43;;;13.10;78.30;;;;;;5013574;28;20026;-85
2022/02/09 15:41:29;;;;;;;7.30;6.05;;;13.10;78.30;;;;;;4992841;28;20104;-83
2022/02/09 15:56:14;;;;;;;6.95;5.53;;;13.00;78.30;;;;;;5007860;28;20033;-83
2022/02/09 16:38:04;;;;;;;6.47;5.07;;;13.00;78.30;;;;;;4993046;28;20604;-85
2022/02/09 16:46:15;;;;;;;6.90;5.65;;;13.00;78.30;;;;;;5029854;28;20034;-83
2022/02/09 16:48:48;;;;;;;6.47;5.32;;;13.00;78.30;;;;;;4990461;28;20025;-81
2022/02/09 16:51:18;;;;;;;6.45;5.32;;;13.00;78.30;;;;;;5000169;28;20060;-81
2022/02/09 17:20:45;;;;;;;6.30;5.47;;;12.90;78.40;;;;;;5018765;28;20041;-86
2022/02/09 17:23:11;;;;;;;7.05;6.10;;;12.90;78.40;;;;;;4982723;28;20643;-82
2022/02/09 17:25:36;;;;;;;6.93;5.70;;;12.90;78.40;;;;;;5001834;28;20437;-82
2022/02/09 17:28:02;;;;;;;7.07;5.53;;;12.90;78.30;;;;;;4996396;28;20467;-82
2022/02/09 17:33:45;;;;;;;7.60;6.13;;;12.90;78.30;;;;;;4992848;28;20033;-81
2022/02/09 17:36:12;;;;;;;9.13;6.40;;;12.90;78.30;;;;;;4994988;28;20495;-87
2022/02/09 17:57:42;;;;;;;6.32;5.28;;;12.90;78.40;;;;;;5004447;28;20038;-81
2022/02/09 18:00:17;;;;;;;6.63;5.53;;;12.80;78.40;;;;;;4994403;28;20152;-83
2022/02/09 18:02:49;;;;;;;7.20;5.28;;;12.80;78.40;;;;;;4986391;28;20459;-82
2022/02/09 18:06:20;;;;;;;7.20;5.70;;;12.80;78.40;;;;;;4997344;28;20032;-81
2022/02/09 18:29:57;;;;;;;8.05;6.28;;;12.70;78.50;;;;;;5007120;28;20516;-81
2022/02/09 19:01:20;;;;;;;7.00;5.72;;;12.70;78.60;;;;;;4997838;28;20389;-80
2022/02/09 19:03:54;;;;;;;7.50;5.97;;;12.70;78.60;;;;;;5010856;28;20061;-80
2022/02/09 19:06:27;;;;;;;6.78;5.38;;;12.70;78.70;;;;;;4998204;28;20042;-80
2022/02/09 19:14:24;;;;;;;7.03;5.85;;;12.60;78.60;;;;;;4965512;28;20038;-84
2022/02/09 19:16:57;;;;;;;7.43;6.28;;;12.60;78.60;;;;;;4997041;28;20034;-81
2022/02/09 19:28:13;;;;;;;7.25;5.57;;;12.60;78.60;;;;;;5005316;28;20029;-81
2022/02/09 19:30:39;;;;;;;8.63;6.10;;;12.60;78.60;;;;;;5012534;28;20482;-81
2022/02/09 19:33:30;;;;;;;7.07;5.60;;;12.60;78.60;;;;;;5001632;28;20037;-81
2022/02/09 19:46:53;;;;;;;6.72;5.63;;;12.50;78.70;;;;;;4986132;28;20038;-85
2022/02/09 19:52:13;;;;;;;7.57;6.60;;;12.50;78.70;;;;;;5002178;28;20045;-81
2022/02/09 19:57:08;;;;;;;7.93;6.35;;;12.50;78.70;;;;;;4993383;28;20033;-81
2022/02/09 19:59:37;;;;;;;8.65;6.80;;;12.50;78.70;;;;;;4995782;28;20034;-81
2022/02/09 20:02:06;;;;;;;6.95;5.63;;;12.50;78.80;;;;;;4995108;28;20127;-81
2022/02/09 20:04:32;;;;;;;8.00;6.60;;;12.50;78.80;;;;;;5006764;28;20037;-81
2022/02/09 20:06:58;;;;;;;7.55;6.32;;;12.50;78.70;;;;;;4979406;28;20073;-82
2022/02/09 20:09:26;;;;;;;7.18;6.00;;;12.50;78.70;;;;;;4989771;28;20564;-81
2022/02/09 20:11:52;;;;;;;7.85;6.22;;;12.50;78.80;;;;;;5016179;28;20152;-80
2022/02/09 20:14:19;;;;;;;7.38;6.28;;;12.50;78.70;;;;;;4992294;28;20109;-80
2022/02/09 20:16:45;;;;;;;8.25;6.32;;;12.50;78.80;;;;;;5004615;28;20033;-80
2022/02/09 20:19:12;;;;;;;8.07;6.43;;;12.50;78.70;;;;;;4989543;28;20033;-91
2022/02/09 20:21:38;;;;;;;7.45;5.72;;;12.50;78.70;;;;;;4998204;28;20057;-80
2022/02/09 20:24:07;;;;;;;7.90;6.10;;;12.50;78.70;;;;;;4993864;28;20034;-80
2022/02/09 20:26:33;;;;;;;8.20;6.68;;;12.50;78.70;;;;;;5026551;28;20152;-80
2022/02/09 20:29:01;;;;;;;8.02;6.35;;;12.50;78.70;;;;;;5007546;28;20093;-79
2022/02/09 20:31:46;;;;;;;8.60;6.38;;;12.50;78.70;;;;;;5012980;28;20053;-81
2022/02/09 20:34:27;;;;;;;7.57;6.40;;;12.50;78.70;;;;;;4989656;28;20050;-82
2022/02/09 20:36:52;;;;;;;6.97;5.72;;;12.50;78.70;;;;;;5023936;28;20091;-82
2022/02/09 20:39:24;;;;;;;7.80;6.35;;;12.50;78.70;;;;;;4998522;28;20463;-81
2022/02/09 20:41:50;;;;;;;8.15;6.50;;;12.50;78.70;;;;;;4977798;28;20029;-81
2022/02/09 20:44:29;;;;;;;7.60;6.05;;;12.50;78.70;;;;;;4989668;28;20035;-82
2022/02/09 20:46:56;;;;;;;7.45;5.85;;;12.40;78.70;;;;;;4983451;28;20124;-85
2022/02/09 20:49:21;;;;;;;7.70;6.13;;;12.40;78.70;;;;;;5005735;28;20104;-83
2022/02/09 20:51:47;;;;;;;6.88;5.68;;;12.40;78.70;;;;;;4970909;28;20153;-81
2022/02/09 20:54:13;;;;;;;7.82;6.20;;;12.40;78.70;;;;;;4985657;28;20049;-81
2022/02/09 20:56:40;;;;;;;7.25;5.85;;;12.40;78.70;;;;;;5002033;28;20038;-81
2022/02/09 20:59:09;;;;;;;8.00;5.85;;;12.40;78.70;;;;;;4978617;28;20037;-83
2022/02/09 21:01:51;;;;;;;7.70;6.03;;;12.40;78.70;;;;;;4985440;28;20022;-82
2022/02/09 21:04:20;;;;;;;7.32;5.97;;;12.40;78.70;;;;;;4984740;28;20394;-81
2022/02/09 21:07:14;;;;;;;7.68;5.80;;;12.40;78.70;;;;;;4988767;28;20507;-81
2022/02/09 21:10:06;;;;;;;7.45;5.80;;;12.40;78.70;;;;;;5004919;28;20462;-80
2022/02/09 21:12:37;;;;;;;7.88;5.75;;;12.40;78.70;;;;;;4983299;28;20042;-80
2022/02/09 21:18:10;;;;;;;7.53;6.25;;;12.40;78.70;;;;;;5018548;28;20088;-82
2022/02/09 21:23:35;;;;;;;7.63;6.05;;;12.40;78.70;;;;;;4979617;28;20029;-81
2022/02/09 21:45:09;;;;;;;7.75;6.07;;;12.30;78.80;;;;;;4990944;28;20124;-83
2022/02/09 21:53:30;;;;;;;7.07;5.68;;;12.30;78.80;;;;;;5010874;28;20045;-82
2022/02/09 21:56:08;;;;;;;8.45;6.45;;;12.30;78.90;;;;;;5005994;28;20072;-83
2022/02/09 21:58:40;;;;;;;8.63;6.80;;;12.30;78.90;;;;;;4986572;28;20542;-83
2022/02/09 22:26:31;;;;;;;8.80;6.60;;;12.20;78.90;;;;;;5023286;28;20475;-84
2022/02/09 22:28:22;;;;;;;8.57;6.40;;;12.20;78.90;;;;;;4989366;28;20042;-83
2022/02/09 22:54:56;;;;;;;9.67;7.67;;;12.20;78.90;;;;;;4997549;28;20391;-82
2022/02/09 22:57:38;;;;;;;9.48;7.32;;;12.10;79.00;;;;;;4994956;28;20568;-84
2022/02/09 23:00:14;;;;;;;8.63;6.78;;;12.20;79.10;;;;;;4997397;28;20040;-82
2022/02/09 23:02:45;;;;;;;10.18;7.55;;;12.10;79.10;;;;;;4974550;28;20486;-82
2022/02/09 23:05:44;;;;;;;9.73;7.60;;;12.10;79.00;;;;;;4981607;28;20040;-82
2022/02/09 23:13:28;;;;;;;8.77;7.65;;;12.10;79.00;;;;;;4991400;28;20036;-82
2022/02/09 23:24:02;;;;;;;9.10;7.28;;;12.10;79.00;;;;;;5012482;28;20034;-84
